Airfield :







YOU CAN JOIN US ON...

 
LOGIN :

Register | Disclaimer

   EN    FR    IT 

 









Legend :    VFR   Marginal VFR   IFR   Intensive IFR   Very Intensive IFR
Visi :
Ceiling :
>= 8 km
>= 3000ft
5 to 8 km
1000 to 3000 ft
1500m to 5 km
500 to 1000 ft
800 to 1500m
200 to 500 ft
< 800m
< 200 ft
Symbols :   Thunderstorms  Fog  Heavy snow  Heavy precipitations  Wind > 20 kt







- Airport Elevation : 1709 ft
- IATA code : YKL


CYKL - Schefferville

CURRENT METAR :
  • 171800Z AUTO 32017G26KT 9SM -RA FEW015 BKN026 OVC034 10/08 A2943 RMK PRESRR SLP976 DENSITY ALT 2000FT

EXPIRED METARs :
  • 171759Z AUTO 31016G26KT 9SM -RA SCT015 BKN026 OVC034 10/08 A2942 RMK PRESRR SLP976 DENSITY ALT 2000FT
  • 171747Z AUTO 30021G27KT 3SM -RA BR FEW012 BKN023 BKN039 OVC049 11/09 A2941 RMK PRESRR SLP970 DENSITY ALT 2100FT
  • 171737Z AUTO 29014G24KT 5SM -RA BR FEW014 BKN028 BKN038 OVC049 12/10 A2940 RMK PRESRR SLP966 DENSITY ALT 2300FT
  • 171725Z AUTO 26015G23KT 2 1/2SM -RA BR FEW014 BKN042 OVC050 12/11 A2939 RMK SLP962 DENSITY ALT 2300FT
  • 171700Z AUTO 25011G20KT 9SM FEW018 OVC049 12/10 A2937 RMK SLP958 DENSITY ALT 2300FT
  • 171623Z AUTO 26014G22KT 9SM FEW015 BKN035 BKN046 OVC055 11/09 A2937 RMK SLP955 DENSITY ALT 2300FT
  • 171612Z AUTO 26014G22KT 3SM -RA BR FEW012 SCT017 BKN034 OVC046 11/10 A2937 RMK SLP955 DENSITY ALT 2200FT
  • 171605Z AUTO 25012G21KT 2 1/2SM -RA BR FEW012 BKN034 OVC048 12/10 A2937 RMK SLP955 DENSITY ALT 2300FT
  • 171548Z AUTO 27013G22KT 7SM FEW017 BKN037 OVC060 12/10 A2936 RMK SLP953 DENSITY ALT 2300FT
  • 171540Z AUTO 27017G23KT 5SM BR SCT017 BKN029 OVC060 12/10 A2937 RMK SLP954 DENSITY ALT 2300FT
  • 171529Z AUTO 25009G21KT 9SM -RA FEW017 OVC065 12/10 A2936 RMK SLP952 DENSITY ALT 2400FT

TAF AMD TAF CYKL
Valid from the 17 at 18:00 until the 18 at 02:00 UTC


171803Z 1718/1802 30015G25KT P6SM -RA SCT015 OVC030
TEMPO 1718/1802 21/2SM SHRA BR OVC015 RMK FCST BASED ON AUTO OBS. NXT FCST BY 172000Z
CZUL FIR / North America



MET'MAP, your aeronautical weather chart ! - Copyright ORBIFLY December 2007 - Disclaimer

ORBIFLY MET'MAP TEAM :

Programming & Development : Alexandra Zaïnal
Concept & Development : Baudouin d'Aumeries
Co-Development & Prog : Marc-Olivier Méhu
Technical & hardware support : Manuel Goepfert

Contact : metmap@orbifly.com




SOURCES & CREDITS :

   NOAA